Whitesprings, Pennsylvania
Current Conditions -  °F | °C
As of 7:53 PM on Wednesday 26 Nov 2014 (Local Time) from KSEG Reporting Station
Light Snow Light Snow  
Wind Chill: 28°   Ceiling: 6000
Heat Index: 33°   Visibility: 6mi
Dew Point: 31°   Wind: 6mph
Humidity: 92%   Direction: 340°NNW
Pressure: 29.98"   Gusts: NA
Location:  40.9428°N, 77.0748°W
Report Text: KSEG 270053Z AUTO 34005KT 6SM -SN BR FEW039 BKN060 OVC075 01/M01 A2998 RMK AO2 SLP155 P0001 T00061006
Loading
Personal Weather Stations






























Interactive Weather Map New forecast layout! Learn more

10-Day Weather Forecast

Advertisements
Track Severe Weather on mobile